| Date Time MST |
Temp °F |
RH % |
DewPt °F |
Wind mph |
Dir ° |
Gust mph |
Dir ° |
Press in Hg |
Solar W/m^2 |
Prec in |
|---|---|---|---|---|---|---|---|---|---|---|
| 2026-05-05 17:00 | 32.7 | 98.1 | 32.2 | 5.5 | 302 | 6.5 | 304 | 24.806 | 64.0 | 0.00 |
| 2026-05-05 16:55 | 32.6 | 98.0 | 32.1 | 5.7 | 300 | 6.4 | 309 | 24.805 | 55.7 | 0.00 |
| 2026-05-05 16:50 | 32.6 | 98.0 | 32.1 | 5.7 | 311 | 6.7 | 312 | 24.804 | 51.8 | 0.00 |
| 2026-05-05 16:45 | 32.7 | 97.9 | 32.1 | 6.1 | 309 | 7.0 | 314 | 24.806 | 60.5 | 0.00 |
| 2026-05-05 16:40 | 32.8 | 98.1 | 32.3 | 6.4 | 312 | 7.2 | 309 | 24.809 | 69.7 | 0.01 |
| 2026-05-05 16:35 | 32.9 | 97.9 | 32.3 | 5.8 | 305 | 6.6 | 308 | 24.809 | 71.9 | 0.00 |
| 2026-05-05 16:30 | 32.9 | 98.0 | 32.4 | 5.0 | 303 | 6.1 | 304 | 24.809 | 78.3 | 0.00 |
| 2026-05-05 16:25 | 32.8 | 98.0 | 32.3 | 4.4 | 301 | 5.0 | 301 | 24.808 | 79.0 | 0.00 |
| 2026-05-05 16:20 | 32.7 | 98.0 | 32.2 | 4.8 | 299 | 5.7 | 296 | 24.806 | 71.5 | 0.00 |
| 2026-05-05 16:15 | 32.6 | 98.0 | 32.1 | 5.1 | 297 | 5.8 | 313 | 24.806 | 69.2 | 0.00 |
| 2026-05-05 16:10 | 32.5 | 98.0 | 32.0 | 6.3 | 303 | 7.2 | 304 | 24.809 | 75.8 | 0.00 |
| 2026-05-05 16:05 | 32.4 | 98.0 | 31.9 | 7.1 | 303 | 8.6 | 303 | 24.810 | 77.0 | 0.00 |
| 2026-05-05 16:00 | 32.3 | 98.1 | 31.8 | 6.8 | 303 | 7.9 | 298 | 24.810 | 68.3 | 0.01 |
| 2026-05-05 15:55 | 32.2 | 98.0 | 31.7 | 6.9 | 305 | 8.5 | 301 | 24.810 | 61.2 | 0.00 |
| 2026-05-05 15:50 | 32.1 | 97.9 | 31.5 | 6.8 | 297 | 7.9 | 296 | 24.809 | 56.7 | 0.00 |
| 2026-05-05 15:45 | 32.0 | 98.0 | 31.5 | 7.4 | 297 | 8.5 | 290 | 24.809 | 55.8 | 0.00 |
| 2026-05-05 15:40 | 31.9 | 97.9 | 31.4 | 7.8 | 290 | 9.1 | 290 | 24.807 | 57.8 | 0.00 |
| 2026-05-05 15:35 | 32.0 | 97.9 | 31.4 | 7.1 | 289 | 8.3 | 293 | 24.806 | 57.1 | 0.01 |
| 2026-05-05 15:30 | 31.9 | 98.0 | 31.4 | 6.9 | 302 | 8.2 | 305 | 24.809 | 47.2 | 0.00 |
| 2026-05-05 15:25 | 31.9 | 97.9 | 31.4 | 6.7 | 305 | 7.6 | 293 | 24.809 | 37.0 | 0.00 |
| 2026-05-05 15:20 | 32.0 | 97.9 | 31.4 | 7.7 | 301 | 9.1 | 306 | 24.809 | 36.2 | 0.00 |
| 2026-05-05 15:15 | 32.0 | 97.9 | 31.5 | 7.2 | 305 | 9.3 | 303 | 24.807 | 37.4 | 0.00 |
| 2026-05-05 15:10 | 32.0 | 97.9 | 31.5 | 7.7 | 315 | 9.1 | 330 | 24.803 | 43.3 | 0.00 |
| 2026-05-05 15:05 | 32.1 | 97.8 | 31.5 | 7.9 | 331 | 9.4 | 327 | 24.803 | 46.4 | 0.00 |
| 2026-05-05 15:00 | 32.2 | 97.7 | 31.6 | 7.8 | 318 | 9.2 | 319 | 24.805 | 52.6 | 0.01 |
| 2026-05-05 14:55 | 32.2 | 97.8 | 31.6 | 8.0 | 325 | 9.1 | 323 | 24.807 | 65.6 | 0.00 |
| 2026-05-05 14:50 | 32.3 | 97.7 | 31.7 | 7.1 | 310 | 9.0 | 312 | 24.811 | 89.1 | 0.00 |
| 2026-05-05 14:45 | 32.3 | 97.7 | 31.7 | 6.8 | 318 | 8.4 | 320 | 24.808 | 104.5 | 0.01 |
| 2026-05-05 14:40 | 32.2 | 97.6 | 31.6 | 6.7 | 326 | 8.6 | 328 | 24.804 | 119.5 | 0.00 |
| 2026-05-05 14:35 | 32.1 | 97.7 | 31.5 | 7.9 | 322 | 10.2 | 313 | 24.807 | 113.7 | 0.00 |
| Date Time MST |
Temp °C |
RH % |
DewPt °C |
Wind m/s |
Dir ° |
Gust m/s |
Dir ° |
Press hPa |
Solar W/m^2 |
Prec mm |
|---|---|---|---|---|---|---|---|---|---|---|
| 2026-05-05 17:00 | 0.4 | 98.1 | 0.1 | 2.5 | 302 | 2.9 | 304 | 840.04 | 64.0 | 0.00 |
| 2026-05-05 16:55 | 0.3 | 98.0 | 0.1 | 2.6 | 300 | 2.9 | 309 | 839.99 | 55.7 | 0.00 |
| 2026-05-05 16:50 | 0.3 | 98.0 | 0.1 | 2.5 | 311 | 3.0 | 312 | 839.94 | 51.8 | 0.00 |
| 2026-05-05 16:45 | 0.4 | 97.9 | 0.1 | 2.7 | 309 | 3.1 | 314 | 840.02 | 60.5 | 0.00 |
| 2026-05-05 16:40 | 0.4 | 98.1 | 0.2 | 2.9 | 312 | 3.2 | 309 | 840.12 | 69.7 | 0.25 |
| 2026-05-05 16:35 | 0.5 | 97.9 | 0.2 | 2.6 | 305 | 3.0 | 308 | 840.13 | 71.9 | 0.00 |
| 2026-05-05 16:30 | 0.5 | 98.0 | 0.2 | 2.2 | 303 | 2.7 | 304 | 840.14 | 78.3 | 0.00 |
| 2026-05-05 16:25 | 0.5 | 98.0 | 0.2 | 2.0 | 301 | 2.2 | 301 | 840.08 | 79.0 | 0.00 |
| 2026-05-05 16:20 | 0.4 | 98.0 | 0.1 | 2.2 | 299 | 2.6 | 296 | 840.02 | 71.5 | 0.00 |
| 2026-05-05 16:15 | 0.3 | 98.0 | 0.1 | 2.3 | 297 | 2.6 | 313 | 840.04 | 69.2 | 0.00 |
| 2026-05-05 16:10 | 0.3 | 98.0 | 0.0 | 2.8 | 303 | 3.2 | 304 | 840.13 | 75.8 | 0.00 |
| 2026-05-05 16:05 | 0.2 | 98.0 | -0.0 | 3.2 | 303 | 3.9 | 303 | 840.15 | 77.0 | 0.00 |
| 2026-05-05 16:00 | 0.1 | 98.1 | -0.1 | 3.0 | 303 | 3.5 | 298 | 840.16 | 68.3 | 0.25 |
| 2026-05-05 15:55 | 0.1 | 98.0 | -0.2 | 3.1 | 305 | 3.8 | 301 | 840.15 | 61.2 | 0.00 |
| 2026-05-05 15:50 | 0.0 | 97.9 | -0.3 | 3.0 | 297 | 3.5 | 296 | 840.12 | 56.7 | 0.00 |
| 2026-05-05 15:45 | -0.0 | 98.0 | -0.3 | 3.3 | 297 | 3.8 | 290 | 840.13 | 55.8 | 0.00 |
| 2026-05-05 15:40 | -0.0 | 97.9 | -0.3 | 3.5 | 290 | 4.1 | 290 | 840.08 | 57.8 | 0.00 |
| 2026-05-05 15:35 | -0.0 | 97.9 | -0.3 | 3.2 | 289 | 3.7 | 293 | 840.02 | 57.1 | 0.25 |
| 2026-05-05 15:30 | -0.0 | 98.0 | -0.3 | 3.1 | 302 | 3.6 | 305 | 840.11 | 47.2 | 0.00 |
| 2026-05-05 15:25 | -0.0 | 97.9 | -0.3 | 3.0 | 305 | 3.4 | 293 | 840.14 | 37.0 | 0.00 |
| 2026-05-05 15:20 | -0.0 | 97.9 | -0.3 | 3.5 | 301 | 4.1 | 306 | 840.12 | 36.2 | 0.00 |
| 2026-05-05 15:15 | 0.0 | 97.9 | -0.3 | 3.2 | 305 | 4.2 | 303 | 840.07 | 37.4 | 0.00 |
| 2026-05-05 15:10 | 0.0 | 97.9 | -0.3 | 3.4 | 315 | 4.1 | 330 | 839.93 | 43.3 | 0.00 |
| 2026-05-05 15:05 | 0.0 | 97.8 | -0.3 | 3.5 | 331 | 4.2 | 327 | 839.93 | 46.4 | 0.00 |
| 2026-05-05 15:00 | 0.1 | 97.7 | -0.2 | 3.5 | 318 | 4.1 | 319 | 839.98 | 52.6 | 0.25 |
| 2026-05-05 14:55 | 0.1 | 97.8 | -0.2 | 3.6 | 325 | 4.1 | 323 | 840.05 | 65.6 | 0.00 |
| 2026-05-05 14:50 | 0.2 | 97.7 | -0.2 | 3.2 | 310 | 4.0 | 312 | 840.19 | 89.1 | 0.00 |
| 2026-05-05 14:45 | 0.1 | 97.7 | -0.2 | 3.1 | 318 | 3.7 | 320 | 840.08 | 104.5 | 0.25 |
| 2026-05-05 14:40 | 0.1 | 97.6 | -0.2 | 3.0 | 326 | 3.9 | 328 | 839.96 | 119.5 | 0.00 |
| 2026-05-05 14:35 | 0.1 | 97.7 | -0.3 | 3.5 | 322 | 4.6 | 313 | 840.06 | 113.7 | 0.00 |

Economics Researcher, Research Associate II
Cooperative Institute for Research in the Atmosphere
Colorado State University
1375 Campus Delivery
Fort Collins, CO 80523-1375
CIRA 02
Teams: